Time;durP1;ratioP1;P1;durP2;ratioP2;P2;SDS_P1;SDS_P2;PMS_P1;PMS_P2;Temp;Humidity;BMP_temperature;BMP_pressure;BME280_temperature;BME280_humidity;BME280_pressure;Samples;Min_cycle;Max_cycle;Signal;HPM_P1;HPM_P2
2023/02/20 00:00:22;;;;;;;13.93;7.32;;;6.40;99.90;;;;;;5051806;28;20094;-78
2023/02/20 00:02:48;;;;;;;13.27;7.28;;;6.40;99.90;;;;;;5052830;28;20037;-77
2023/02/20 00:05:14;;;;;;;13.13;7.57;;;6.50;99.90;;;;;;5052952;28;20112;-77
2023/02/20 00:07:39;;;;;;;10.85;6.93;;;6.30;99.90;;;;;;5053179;28;20043;-79
2023/02/20 00:10:06;;;;;;;11.93;7.05;;;6.40;99.90;;;;;;5051399;28;20075;-79
2023/02/20 00:12:32;;;;;;;18.10;8.23;;;6.50;99.90;;;;;;5051831;28;20047;-79
2023/02/20 00:14:57;;;;;;;15.02;8.32;;;6.30;99.90;;;;;;5051867;28;20037;-79
2023/02/20 00:17:23;;;;;;;12.90;7.35;;;6.40;99.90;;;;;;5051635;28;20389;-79
2023/02/20 00:19:48;;;;;;;17.23;8.90;;;6.50;99.90;;;;;;5051659;28;20108;-80
2023/02/20 00:22:14;;;;;;;17.10;8.90;;;6.50;99.90;;;;;;5051646;28;20040;-79
2023/02/20 00:24:40;;;;;;;17.10;9.43;;;6.50;99.90;;;;;;5051550;28;20037;-79
2023/02/20 00:27:05;;;;;;;15.82;9.23;;;6.60;99.90;;;;;;5051377;28;20033;-79
2023/02/20 00:29:31;;;;;;;17.75;9.40;;;6.40;99.90;;;;;;5052702;28;20163;-79
2023/02/20 00:31:57;;;;;;;13.85;8.57;;;6.50;99.90;;;;;;5051328;28;20047;-79
2023/02/20 00:34:26;;;;;;;16.90;9.48;;;6.60;99.90;;;;;;5051195;28;20037;-79
2023/02/20 00:36:52;;;;;;;18.55;9.52;;;6.50;99.90;;;;;;5052408;28;20508;-79
2023/02/20 00:39:18;;;;;;;15.30;9.55;;;6.60;99.90;;;;;;5052576;28;20048;-79
2023/02/20 00:41:44;;;;;;;17.30;9.35;;;6.70;99.90;;;;;;5050995;28;20416;-79
2023/02/20 00:44:09;;;;;;;21.08;10.40;;;6.70;99.90;;;;;;5052530;28;20033;-79
2023/02/20 00:46:35;;;;;;;18.73;10.20;;;6.80;99.90;;;;;;5051410;28;20049;-79
2023/02/20 00:49:01;;;;;;;14.90;9.55;;;6.80;99.90;;;;;;5051034;28;20037;-80
2023/02/20 00:51:27;;;;;;;17.35;10.50;;;6.80;99.90;;;;;;5051978;28;20072;-79
2023/02/20 00:53:52;;;;;;;15.57;8.90;;;6.70;99.90;;;;;;5053808;28;20036;-79
2023/02/20 00:56:18;;;;;;;13.80;8.85;;;6.90;99.90;;;;;;5055214;28;20090;-79
2023/02/20 00:58:43;;;;;;;14.70;9.32;;;6.90;99.90;;;;;;5054854;28;20167;-79
2023/02/20 01:01:09;;;;;;;17.80;9.52;;;6.80;99.90;;;;;;5056281;28;20123;-80
2023/02/20 01:03:34;;;;;;;17.48;9.75;;;6.90;99.90;;;;;;5055130;28;20045;-79
2023/02/20 01:06:00;;;;;;;17.95;9.68;;;6.70;99.90;;;;;;5054153;28;20044;-79
2023/02/20 01:08:26;;;;;;;15.38;9.95;;;7.00;99.90;;;;;;5053586;28;20033;-79
2023/02/20 01:10:51;;;;;;;17.33;10.13;;;6.80;99.90;;;;;;5051985;28;20048;-79
2023/02/20 01:13:17;;;;;;;15.32;10.07;;;7.00;99.90;;;;;;5051214;28;20073;-80
2023/02/20 01:15:43;;;;;;;15.77;10.13;;;6.80;99.90;;;;;;5050938;28;20036;-79
2023/02/20 01:18:08;;;;;;;18.63;11.38;;;6.90;99.90;;;;;;5052034;28;20037;-79
2023/02/20 01:20:34;;;;;;;18.20;12.05;;;6.70;99.90;;;;;;5050769;28;20505;-79
2023/02/20 01:22:59;;;;;;;16.52;11.93;;;6.70;99.90;;;;;;5051687;28;20500;-80
2023/02/20 01:25:25;;;;;;;20.45;12.48;;;6.90;99.90;;;;;;5034123;28;20033;-79
2023/02/20 01:27:51;;;;;;;18.25;11.55;;;6.80;99.90;;;;;;5051795;28;20215;-79
2023/02/20 01:30:16;;;;;;;16.27;11.85;;;6.80;99.90;;;;;;5051972;28;20048;-79
2023/02/20 01:32:42;;;;;;;17.50;11.18;;;6.80;99.90;;;;;;5051363;28;20040;-79
2023/02/20 01:35:08;;;;;;;17.70;11.45;;;6.90;99.90;;;;;;5050494;28;20047;-80
2023/02/20 01:37:33;;;;;;;16.88;11.63;;;6.90;99.90;;;;;;5051751;28;20041;-79
2023/02/20 01:39:59;;;;;;;20.83;12.88;;;6.90;99.90;;;;;;5051785;28;20072;-79
2023/02/20 01:42:28;;;;;;;16.05;12.45;;;6.90;99.90;;;;;;5050219;28;20029;-79
2023/02/20 01:45:13;;;;;;;20.85;12.95;;;6.70;99.90;;;;;;5033557;28;20041;-79
2023/02/20 01:47:39;;;;;;;18.77;13.40;;;6.80;99.90;;;;;;5051432;28;20054;-79
2023/02/20 01:50:06;;;;;;;22.73;13.98;;;6.80;99.90;;;;;;5050556;28;20049;-79
2023/02/20 01:52:34;;;;;;;18.02;12.95;;;6.60;99.90;;;;;;5051500;28;20040;-79
2023/02/20 01:55:15;;;;;;;17.90;12.60;;;6.90;99.90;;;;;;5051568;28;20041;-79
2023/02/20 01:57:48;;;;;;;16.73;12.27;;;6.90;99.90;;;;;;5051300;28;20044;-79
2023/02/20 02:00:15;;;;;;;;;;;6.90;99.90;;;;;;5052006;28;20037;-79
2023/02/20 02:02:48;;;;;;;20.27;12.60;;;6.70;99.90;;;;;;5051136;28;20411;-79
2023/02/20 02:05:16;;;;;;;22.05;12.70;;;6.90;99.90;;;;;;5050461;28;20106;-80
2023/02/20 02:07:41;;;;;;;18.88;12.15;;;6.80;99.90;;;;;;5051296;28;20084;-79
2023/02/20 02:10:10;;;;;;;17.83;12.07;;;6.80;99.90;;;;;;5050047;28;20076;-79
2023/02/20 02:12:36;;;;;;;16.92;12.50;;;6.80;99.90;;;;;;5049789;28;20496;-79
2023/02/20 02:15:02;;;;;;;15.88;11.50;;;6.80;99.90;;;;;;5051986;28;20112;-79
2023/02/20 02:17:55;;;;;;;19.50;11.82;;;7.00;99.90;;;;;;5053861;28;20574;-79
2023/02/20 02:20:30;;;;;;;17.80;11.18;;;6.80;99.90;;;;;;5055092;28;20404;-79
2023/02/20 02:23:34;;;;;;;20.65;11.43;;;6.90;99.90;;;;;;5036941;28;20041;-79
2023/02/20 02:26:26;;;;;;;18.35;12.27;;;7.00;99.90;;;;;;5053790;28;20562;-79
2023/02/20 02:29:02;;;;;;;18.65;11.82;;;6.80;99.90;;;;;;5053906;28;20044;-79
2023/02/20 02:32:12;;;;;;;17.08;11.32;;;6.90;99.90;;;;;;5053801;28;20127;-79
2023/02/20 02:35:02;;;;;;;14.55;10.60;;;6.80;99.90;;;;;;5053739;28;20037;-79
2023/02/20 02:37:47;;;;;;;22.77;12.35;;;7.10;99.90;;;;;;5053459;28;20081;-79
2023/02/20 02:40:19;;;;;;;18.00;11.27;;;7.10;99.90;;;;;;5054670;28;20516;-79
2023/02/20 02:43:08;;;;;;;18.88;11.95;;;7.00;99.90;;;;;;5036528;28;20174;-80
2023/02/20 02:45:59;;;;;;;18.55;12.02;;;7.20;99.90;;;;;;5054580;28;20064;-79
2023/02/20 02:48:50;;;;;;;22.48;11.30;;;6.90;99.90;;;;;;5053569;28;20044;-79
2023/02/20 02:51:22;;;;;;;17.55;11.73;;;7.10;99.90;;;;;;5054537;28;20045;-78
2023/02/20 02:54:04;;;;;;;21.10;12.20;;;7.20;99.90;;;;;;5053226;28;20037;-79
2023/02/20 02:56:37;;;;;;;25.67;11.60;;;7.10;99.90;;;;;;5054556;28;20045;-79
2023/02/20 02:59:07;;;;;;;24.05;13.93;;;7.10;99.90;;;;;;5053389;28;20036;-79
2023/02/20 03:01:38;;;;;;;21.83;12.52;;;7.10;99.90;;;;;;5053088;28;20507;-79
2023/02/20 03:04:09;;;;;;;25.58;13.18;;;7.00;99.90;;;;;;5054100;28;20037;-79
2023/02/20 03:06:38;;;;;;;18.88;13.07;;;7.10;99.90;;;;;;5054172;28;20112;-79
2023/02/20 03:09:14;;;;;;;21.60;11.65;;;7.00;99.90;;;;;;5054407;28;20045;-79
2023/02/20 03:11:41;;;;;;;20.70;12.30;;;7.00;99.90;;;;;;5054239;28;20119;-79
2023/02/20 03:17:11;;;;;;;23.70;12.43;;;7.10;99.90;;;;;;5052767;28;20052;-79
2023/02/20 03:19:42;;;;;;;20.98;12.20;;;7.20;99.90;;;;;;5053057;28;20570;-79
2023/02/20 03:22:18;;;;;;;25.42;13.35;;;6.90;99.90;;;;;;5054000;28;20074;-79
2023/02/20 03:24:54;;;;;;;27.08;12.80;;;6.90;99.90;;;;;;5036022;28;20068;-79
2023/02/20 03:27:41;;;;;;;23.65;13.00;;;7.20;99.90;;;;;;5051265;28;20112;-79
2023/02/20 03:30:27;;;;;;;22.48;11.80;;;7.20;99.90;;;;;;5052855;28;20052;-79
2023/02/20 03:44:25;;;;;;;21.88;13.10;;;7.20;99.90;;;;;;5053536;28;20121;-79
2023/02/20 03:46:53;;;;;;;26.83;14.82;;;7.00;99.90;;;;;;5052002;28;20044;-79
2023/02/20 03:49:22;;;;;;;24.65;14.15;;;7.20;99.90;;;;;;5052279;28;20040;-79
2023/02/20 03:51:57;;;;;;;27.85;13.98;;;7.00;99.90;;;;;;5052453;28;20084;-79
2023/02/20 03:54:24;;;;;;;26.40;13.98;;;7.10;99.90;;;;;;5052036;28;20098;-79
2023/02/20 03:56:54;;;;;;;30.25;14.52;;;7.10;99.90;;;;;;5053166;28;20056;-79
2023/02/20 03:59:30;;;;;;;28.65;14.65;;;7.30;99.90;;;;;;5053334;28;20045;-79
2023/02/20 04:02:02;;;;;;;28.77;15.30;;;7.20;99.90;;;;;;5051889;28;20048;-79
2023/02/20 04:04:34;;;;;;;30.17;16.02;;;7.30;99.90;;;;;;5053033;28;20390;-79
2023/02/20 04:07:03;;;;;;;29.90;17.15;;;7.50;99.90;;;;;;5051711;28;20036;-79
2023/02/20 04:09:32;;;;;;;32.58;16.52;;;7.20;99.90;;;;;;5051811;28;20045;-78
2023/02/20 04:12:21;;;;;;;33.20;16.60;;;7.30;99.90;;;;;;5035068;28;20049;-77
2023/02/20 04:14:49;;;;;;;30.95;15.73;;;7.50;99.90;;;;;;5042092;28;20400;-77
2023/02/20 04:17:19;;;;;;;28.85;16.83;;;7.50;99.90;;;;;;5052412;28;20496;-78
2023/02/20 04:19:45;;;;;;;27.80;16.35;;;7.30;99.90;;;;;;5052961;28;20045;-77
2023/02/20 04:22:16;;;;;;;33.80;16.60;;;7.40;99.90;;;;;;5034792;28;20040;-77
2023/02/20 04:24:49;;;;;;;37.05;16.95;;;7.60;99.90;;;;;;5051254;28;20041;-77
2023/02/20 04:27:15;;;;;;;40.20;17.70;;;7.40;99.90;;;;;;5052223;28;20086;-78
2023/02/20 04:29:40;;;;;;;28.08;16.83;;;7.60;99.90;;;;;;5051488;28;20463;-77
2023/02/20 04:32:06;;;;;;;37.55;17.30;;;7.50;99.90;;;;;;5051034;28;20128;-77
2023/02/20 04:34:32;;;;;;;31.85;18.20;;;7.50;99.90;;;;;;5051000;28;20068;-77
2023/02/20 04:37:12;;;;;;;28.88;16.75;;;7.40;99.90;;;;;;5050938;28;20041;-77
2023/02/20 04:39:39;;;;;;;30.35;16.33;;;7.50;99.90;;;;;;5052395;28;20047;-79
2023/02/20 04:42:05;;;;;;;28.13;16.33;;;7.70;99.90;;;;;;5034584;28;20456;-79
2023/02/20 04:44:30;;;;;;;29.58;18.05;;;7.70;99.90;;;;;;5050956;28;20536;-79
2023/02/20 04:46:57;;;;;;;34.85;18.52;;;7.70;99.90;;;;;;5052200;28;20080;-79
2023/02/20 04:49:23;;;;;;;28.40;17.52;;;7.70;99.90;;;;;;5051274;28;20076;-79
2023/02/20 04:51:48;;;;;;;33.65;19.17;;;7.80;99.90;;;;;;5050935;28;20076;-79
2023/02/20 04:54:14;;;;;;;35.83;18.40;;;7.50;99.90;;;;;;5050702;28;20555;-79
2023/02/20 04:56:39;;;;;;;32.60;18.05;;;7.70;99.90;;;;;;5050608;28;20036;-79
2023/02/20 04:59:05;;;;;;;38.20;17.90;;;7.60;99.90;;;;;;5050841;28;20504;-79
2023/02/20 05:01:31;;;;;;;29.92;16.73;;;7.70;99.90;;;;;;5051986;28;20045;-79
2023/02/20 05:03:56;;;;;;;33.67;18.92;;;7.80;99.90;;;;;;5050750;28;20079;-79
2023/02/20 05:06:22;;;;;;;32.15;17.90;;;7.60;99.90;;;;;;5051968;28;20139;-79
2023/02/20 05:08:48;;;;;;;41.22;17.48;;;7.60;99.90;;;;;;5050995;28;20037;-79
2023/02/20 05:11:13;;;;;;;37.17;18.38;;;7.60;99.90;;;;;;5050725;28;20044;-79
2023/02/20 05:13:39;;;;;;;43.50;17.90;;;7.80;99.90;;;;;;5050346;28;20518;-80
2023/02/20 05:16:05;;;;;;;36.80;19.70;;;7.80;99.90;;;;;;5051756;28;20041;-79
2023/02/20 05:18:31;;;;;;;34.70;17.42;;;7.80;99.90;;;;;;5051314;28;20055;-79
2023/02/20 05:23:41;;;;;;;30.25;17.05;;;7.70;99.90;;;;;;5051364;28;20496;-79
2023/02/20 05:26:12;;;;;;;37.22;17.50;;;7.60;99.90;;;;;;5051344;28;20120;-79
2023/02/20 05:28:41;;;;;;;40.90;19.92;;;7.50;99.90;;;;;;5033857;28;20040;-79
2023/02/20 05:31:06;;;;;;;34.83;18.40;;;7.50;99.90;;;;;;5050313;28;20515;-79
2023/02/20 05:33:32;;;;;;;37.25;18.30;;;7.80;99.90;;;;;;5051525;28;20036;-79
2023/02/20 05:35:58;;;;;;;37.28;18.70;;;7.70;99.90;;;;;;5051487;28;20037;-79
2023/02/20 05:38:23;;;;;;;34.13;18.65;;;7.60;99.90;;;;;;5051618;28;20120;-79
2023/02/20 05:40:49;;;;;;;37.88;18.38;;;7.60;99.90;;;;;;5050345;28;20049;-79
2023/02/20 05:43:16;;;;;;;36.58;18.70;;;7.50;99.90;;;;;;5051449;28;20086;-79
2023/02/20 05:45:41;;;;;;;34.88;18.63;;;7.70;99.90;;;;;;5051403;28;20504;-79
2023/02/20 05:48:07;;;;;;;38.92;17.50;;;7.60;99.90;;;;;;5050239;28;20116;-79
2023/02/20 05:50:33;;;;;;;42.63;20.02;;;7.60;99.90;;;;;;5052963;28;20048;-79
2023/02/20 05:52:58;;;;;;;37.55;19.33;;;7.80;99.90;;;;;;5055326;28;20045;-79
2023/02/20 05:55:24;;;;;;;32.47;18.60;;;7.60;99.90;;;;;;5055594;28;20044;-79
2023/02/20 05:57:49;;;;;;;37.22;18.15;;;7.80;99.90;;;;;;5054528;28;20628;-79
2023/02/20 06:00:15;;;;;;;36.53;17.92;;;7.90;99.90;;;;;;5055459;28;20563;-79
2023/02/20 06:02:40;;;;;;;39.45;18.58;;;7.80;99.90;;;;;;5055185;28;20033;-79
2023/02/20 06:05:06;;;;;;;41.65;19.58;;;7.80;99.90;;;;;;5054338;28;20068;-80
2023/02/20 06:07:33;;;;;;;34.70;17.65;;;8.00;99.90;;;;;;5054023;28;20086;-79
2023/02/20 06:09:58;;;;;;;39.53;18.35;;;7.90;99.90;;;;;;5055573;28;20033;-79
2023/02/20 06:12:24;;;;;;;28.98;17.65;;;7.80;99.90;;;;;;5053931;28;20162;-79
2023/02/20 06:14:50;;;;;;;31.15;16.67;;;8.10;99.90;;;;;;5054101;28;20621;-78
2023/02/20 06:17:15;;;;;;;32.88;17.08;;;8.00;99.90;;;;;;5055689;28;20033;-79
2023/02/20 06:19:41;;;;;;;34.78;18.35;;;8.00;99.90;;;;;;5054401;28;20063;-79
2023/02/20 06:22:06;;;;;;;24.75;14.68;;;8.20;99.90;;;;;;5043913;28;20397;-79
2023/02/20 06:24:32;;;;;;;36.17;15.93;;;8.20;99.90;;;;;;5036845;28;20041;-79
2023/02/20 06:26:57;;;;;;;33.05;16.33;;;8.10;99.90;;;;;;5018097;28;20068;-79
2023/02/20 06:29:23;;;;;;;38.90;17.67;;;8.30;99.90;;;;;;5034054;28;20045;-79
2023/02/20 06:31:49;;;;;;;31.30;15.77;;;8.00;99.90;;;;;;5035601;28;20523;-79
2023/02/20 06:34:15;;;;;;;34.42;15.52;;;8.20;99.90;;;;;;5033547;28;20612;-80
2023/02/20 06:36:42;;;;;;;39.42;16.02;;;8.20;99.90;;;;;;5033672;28;20115;-79
2023/02/20 06:39:09;;;;;;;38.42;16.58;;;8.30;99.90;;;;;;5033725;28;20456;-79
2023/02/20 06:41:35;;;;;;;29.13;14.90;;;8.10;99.90;;;;;;5035497;28;20202;-79
2023/02/20 06:44:01;;;;;;;30.65;14.57;;;8.10;99.90;;;;;;5033504;28;20049;-80
2023/02/20 06:46:26;;;;;;;29.63;14.93;;;8.30;99.90;;;;;;5033477;28;20033;-79
2023/02/20 06:48:55;;;;;;;26.08;13.77;;;8.40;99.90;;;;;;5017268;28;20029;-79
2023/02/20 06:51:33;;;;;;;25.17;15.07;;;8.20;99.90;;;;;;5017141;28;20516;-79
2023/02/20 06:54:00;;;;;;;28.65;15.45;;;8.30;99.90;;;;;;5033400;28;20120;-78
2023/02/20 06:56:29;;;;;;;31.10;14.77;;;8.30;99.90;;;;;;5032644;28;20159;-76
2023/02/20 06:58:55;;;;;;;33.58;15.98;;;8.20;99.90;;;;;;5033170;28;20121;-76
2023/02/20 07:01:25;;;;;;;26.92;15.90;;;8.40;99.90;;;;;;5032196;28;20122;-76
2023/02/20 07:03:53;;;;;;;25.95;15.38;;;8.50;99.90;;;;;;5032270;28;20044;-76
2023/02/20 07:06:18;;;;;;;31.85;15.00;;;8.20;99.90;;;;;;5032786;28;20041;-76
2023/02/20 07:08:44;;;;;;;35.78;15.55;;;8.50;99.90;;;;;;5033144;28;20029;-76
2023/02/20 07:11:10;;;;;;;33.45;14.45;;;8.40;99.90;;;;;;5034149;28;20033;-76
2023/02/20 07:13:36;;;;;;;31.35;14.15;;;8.40;99.90;;;;;;5016315;28;20052;-76
2023/02/20 07:16:01;;;;;;;33.22;14.73;;;8.40;99.90;;;;;;5032638;28;20517;-76
2023/02/20 07:18:27;;;;;;;28.88;13.35;;;8.30;99.90;;;;;;5033031;28;20045;-76
2023/02/20 07:20:53;;;;;;;31.58;13.50;;;8.40;99.90;;;;;;5032554;28;20045;-76
2023/02/20 07:23:19;;;;;;;30.80;14.23;;;8.40;99.90;;;;;;5033882;28;20064;-76
2023/02/20 07:25:46;;;;;;;25.13;13.68;;;8.20;99.90;;;;;;5032598;28;20041;-76
2023/02/20 07:28:13;;;;;;;25.42;13.45;;;8.40;99.90;;;;;;5015774;28;20041;-76
2023/02/20 07:30:38;;;;;;;26.35;12.57;;;8.30;99.90;;;;;;5033867;28;20041;-76
2023/02/20 07:33:04;;;;;;;21.98;13.93;;;8.50;99.90;;;;;;5033421;28;20041;-76
2023/02/20 07:35:29;;;;;;;28.90;13.65;;;8.50;99.90;;;;;;5032405;28;20459;-76
2023/02/20 07:37:55;;;;;;;19.85;11.70;;;8.30;99.90;;;;;;5033782;28;20140;-76
2023/02/20 07:40:21;;;;;;;25.45;12.55;;;8.40;99.90;;;;;;5032345;28;20045;-76
2023/02/20 07:42:46;;;;;;;24.85;11.55;;;8.30;99.90;;;;;;5033234;28;20037;-76
2023/02/20 07:45:12;;;;;;;28.02;12.52;;;8.40;99.90;;;;;;5032326;28;20045;-77
2023/02/20 07:47:37;;;;;;;30.85;13.85;;;8.50;99.90;;;;;;5033247;28;20089;-75
2023/02/20 07:50:03;;;;;;;22.80;10.50;;;8.40;99.90;;;;;;5033705;28;20352;-76
2023/02/20 07:52:29;;;;;;;23.25;12.10;;;8.30;99.90;;;;;;5032008;28;20068;-76
2023/02/20 07:54:54;;;;;;;17.75;9.77;;;8.40;99.90;;;;;;5033174;28;20489;-76
2023/02/20 07:57:20;;;;;;;21.42;10.60;;;8.40;99.90;;;;;;5033224;28;20045;-76
2023/02/20 07:59:46;;;;;;;22.77;10.77;;;8.30;99.90;;;;;;5033267;28;20528;-76
2023/02/20 08:02:11;;;;;;;19.33;9.80;;;8.40;99.90;;;;;;5031837;28;20049;-76
2023/02/20 08:04:37;;;;;;;23.13;10.75;;;8.50;99.90;;;;;;5031846;28;20053;-76
2023/02/20 08:07:02;;;;;;;21.98;9.75;;;8.60;99.90;;;;;;5032932;28;20116;-76
2023/02/20 08:09:28;;;;;;;22.08;10.65;;;8.60;99.90;;;;;;5033275;28;20045;-76
2023/02/20 08:11:54;;;;;;;19.50;9.27;;;8.60;99.90;;;;;;5033154;28;20394;-76
2023/02/20 08:14:20;;;;;;;18.42;8.50;;;8.50;99.90;;;;;;5032390;28;20103;-76
2023/02/20 08:16:45;;;;;;;17.92;9.23;;;8.50;99.90;;;;;;5032588;28;20045;-76
2023/02/20 08:19:11;;;;;;;20.85;9.20;;;8.70;99.90;;;;;;5032881;28;20049;-76
2023/02/20 08:21:36;;;;;;;20.27;8.75;;;8.70;99.90;;;;;;5033019;28;20462;-76
2023/02/20 08:24:02;;;;;;;19.67;9.25;;;8.70;99.90;;;;;;5032769;28;20037;-76
2023/02/20 08:26:28;;;;;;;20.38;9.25;;;8.50;99.90;;;;;;5031207;28;20033;-76
2023/02/20 08:28:53;;;;;;;16.55;9.60;;;8.60;99.90;;;;;;5031423;28;20038;-76
2023/02/20 08:31:20;;;;;;;15.43;7.50;;;8.60;99.90;;;;;;5031431;28;20077;-76
2023/02/20 08:33:45;;;;;;;17.10;9.13;;;8.70;99.90;;;;;;5032602;28;20045;-76
2023/02/20 08:36:13;;;;;;;19.00;8.75;;;8.70;99.90;;;;;;5032605;28;20045;-76
2023/02/20 08:38:38;;;;;;;18.83;7.90;;;8.70;99.90;;;;;;5031498;28;20041;-76
2023/02/20 08:41:06;;;;;;;18.27;9.23;;;8.80;99.90;;;;;;5031311;28;20079;-76
2023/02/20 08:43:33;;;;;;;21.55;8.90;;;8.80;99.90;;;;;;5030902;28;20079;-76
2023/02/20 08:46:00;;;;;;;16.30;8.55;;;8.90;99.90;;;;;;5032009;28;20041;-76
2023/02/20 08:48:25;;;;;;;14.90;8.18;;;8.80;99.90;;;;;;5034781;28;20562;-75
2023/02/20 08:50:51;;;;;;;21.30;7.93;;;9.00;99.90;;;;;;5055198;28;20045;-75
2023/02/20 08:53:17;;;;;;;22.00;8.10;;;8.90;99.90;;;;;;5058802;28;20052;-75
2023/02/20 08:55:43;;;;;;;18.02;8.23;;;9.00;99.90;;;;;;5032245;28;20033;-76
2023/02/20 08:58:08;;;;;;;18.27;7.63;;;9.00;99.90;;;;;;5032044;28;20041;-76
2023/02/20 09:00:34;;;;;;;18.40;8.25;;;8.80;99.90;;;;;;5030989;28;20120;-76
2023/02/20 09:03:00;;;;;;;20.42;8.15;;;9.00;99.90;;;;;;5030526;28;20029;-76
2023/02/20 09:05:25;;;;;;;18.48;8.95;;;8.90;99.90;;;;;;5030791;28;20033;-75
2023/02/20 09:07:51;;;;;;;19.92;7.85;;;9.00;99.90;;;;;;5031830;28;20034;-75
2023/02/20 09:10:18;;;;;;;16.90;7.22;;;8.80;99.90;;;;;;5031934;28;20052;-75
2023/02/20 09:12:45;;;;;;;22.67;8.30;;;9.00;99.90;;;;;;5030553;28;20510;-75
2023/02/20 09:15:11;;;;;;;11.70;7.93;;;8.90;99.90;;;;;;5031898;28;20168;-75
2023/02/20 09:17:37;;;;;;;13.65;7.22;;;8.90;99.90;;;;;;5030086;28;20539;-75
2023/02/20 09:20:04;;;;;;;20.20;7.90;;;9.10;99.90;;;;;;5030422;28;20120;-75
2023/02/20 09:22:30;;;;;;;14.05;6.93;;;9.10;99.90;;;;;;5030442;28;20163;-76
2023/02/20 09:24:56;;;;;;;16.20;7.70;;;9.00;99.90;;;;;;5031031;28;20109;-75
2023/02/20 09:27:21;;;;;;;16.58;6.53;;;9.00;99.90;;;;;;5030184;28;20072;-75
2023/02/20 09:29:47;;;;;;;25.65;8.50;;;9.00;99.90;;;;;;5030522;28;20080;-75
2023/02/20 09:32:13;;;;;;;17.50;7.25;;;9.20;99.90;;;;;;5031596;28;20041;-76
2023/02/20 09:34:39;;;;;;;13.13;6.88;;;9.10;99.90;;;;;;5031715;28;20120;-76
2023/02/20 09:37:04;;;;;;;13.57;6.63;;;9.00;99.90;;;;;;5030334;28;20389;-76
2023/02/20 09:39:30;;;;;;;14.88;7.10;;;9.20;99.90;;;;;;5013903;28;20033;-76
2023/02/20 09:42:13;;;;;;;13.05;6.43;;;9.20;99.90;;;;;;5031536;28;20123;-77
2023/02/20 09:44:53;;;;;;;18.75;8.25;;;9.10;99.90;;;;;;5030434;28;20041;-75
2023/02/20 09:47:32;;;;;;;15.20;5.88;;;9.30;99.90;;;;;;5030277;28;20045;-75
2023/02/20 09:50:03;;;;;;;15.15;6.75;;;9.20;99.90;;;;;;5031664;28;20091;-74
2023/02/20 09:52:33;;;;;;;21.40;7.90;;;9.30;99.90;;;;;;5031418;28;20045;-75
2023/02/20 09:55:13;;;;;;;15.75;7.15;;;9.30;99.90;;;;;;5031515;28;20052;-75
2023/02/20 09:57:39;;;;;;;16.92;7.00;;;9.10;99.90;;;;;;5031276;28;20053;-75
2023/02/20 10:00:16;;;;;;;13.43;6.57;;;9.30;99.90;;;;;;5031465;28;20037;-76
2023/02/20 10:02:50;;;;;;;10.43;6.22;;;9.10;99.90;;;;;;5031275;28;20037;-75
2023/02/20 10:05:25;;;;;;;15.82;6.55;;;9.20;99.90;;;;;;5030822;28;20045;-75
2023/02/20 10:07:52;;;;;;;12.00;6.75;;;9.20;99.90;;;;;;5050085;28;20041;-76
2023/02/20 10:10:20;;;;;;;13.68;7.57;;;9.30;99.90;;;;;;5051362;28;20111;-75
2023/02/20 10:13:01;;;;;;;15.73;6.93;;;9.20;99.90;;;;;;5051113;28;20037;-75
2023/02/20 10:15:44;;;;;;;13.52;7.25;;;9.30;99.90;;;;;;5050026;28;20045;-75
2023/02/20 10:18:32;;;;;;;12.10;6.80;;;9.20;99.90;;;;;;5050106;28;20674;-75
2023/02/20 10:21:10;;;;;;;12.80;7.28;;;9.20;99.90;;;;;;5051234;28;20033;-75
2023/02/20 10:23:48;;;;;;;17.92;8.07;;;9.40;99.90;;;;;;5050864;28;20608;-75
2023/02/20 10:26:24;;;;;;;17.50;7.47;;;9.40;99.90;;;;;;5049610;28;20041;-74
2023/02/20 10:28:50;;;;;;;13.98;7.70;;;9.60;99.90;;;;;;5049861;28;20408;-74
2023/02/20 10:31:30;;;;;;;17.17;6.53;;;9.50;99.90;;;;;;5050080;28;20083;-75
2023/02/20 10:34:04;;;;;;;17.75;7.45;;;9.50;99.90;;;;;;5050814;28;20592;-75
2023/02/20 10:36:34;;;;;;;13.55;7.38;;;9.60;99.90;;;;;;5052058;28;20047;-75
2023/02/20 10:39:08;;;;;;;13.70;7.40;;;9.60;99.90;;;;;;5054889;28;20041;-76
2023/02/20 10:41:39;;;;;;;19.95;7.38;;;9.60;99.90;;;;;;5054726;28;20044;-75
2023/02/20 10:44:12;;;;;;;17.08;6.90;;;9.50;99.90;;;;;;5053136;28;20048;-75
2023/02/20 10:46:51;;;;;;;14.95;7.35;;;9.50;99.90;;;;;;5053407;28;20036;-74
2023/02/20 10:49:39;;;;;;;20.52;8.15;;;9.60;99.90;;;;;;5054845;28;20087;-75
2023/02/20 10:52:09;;;;;;;15.50;6.90;;;9.60;99.90;;;;;;5054656;28;20048;-73
2023/02/20 10:54:50;;;;;;;15.25;7.35;;;9.50;99.90;;;;;;5054302;28;20064;-72
2023/02/20 10:57:31;;;;;;;17.35;7.10;;;9.70;99.90;;;;;;5054290;28;20041;-72
2023/02/20 11:00:08;;;;;;;14.07;6.53;;;9.70;99.90;;;;;;5054544;28;20056;-72
2023/02/20 11:02:40;;;;;;;12.35;7.53;;;9.60;99.90;;;;;;5036227;28;20068;-72
2023/02/20 11:05:19;;;;;;;15.02;8.05;;;9.70;99.90;;;;;;5053143;28;20083;-73
2023/02/20 11:07:45;;;;;;;17.23;7.30;;;9.70;99.90;;;;;;5053941;28;20123;-73
2023/02/20 11:10:10;;;;;;;16.40;8.02;;;9.70;99.90;;;;;;5054305;28;20116;-73
2023/02/20 11:12:49;;;;;;;13.30;6.20;;;9.70;99.90;;;;;;5052503;28;20040;-73
2023/02/20 11:15:20;;;;;;;18.20;6.85;;;9.80;99.90;;;;;;5053038;28;20037;-73
2023/02/20 11:17:49;;;;;;;13.10;6.50;;;9.70;99.90;;;;;;5054057;28;20059;-73
2023/02/20 11:20:51;;;;;;;15.70;7.25;;;9.70;99.90;;;;;;5053750;28;20033;-70
2023/02/20 11:23:41;;;;;;;17.42;7.78;;;9.80;99.90;;;;;;5051659;28;20044;-69
2023/02/20 11:26:30;;;;;;;19.73;6.95;;;10.00;99.90;;;;;;5069793;22;20071;-69
2023/02/20 11:29:05;;;;;;;13.30;6.82;;;10.00;99.90;;;;;;5033291;28;20045;-69
2023/02/20 11:31:31;;;;;;;12.48;6.18;;;10.10;99.90;;;;;;5032579;28;20386;-69
2023/02/20 11:33:59;;;;;;;15.00;6.05;;;10.10;99.90;;;;;;5033174;28;20043;-69
2023/02/20 11:36:35;;;;;;;13.55;5.70;;;10.20;99.90;;;;;;5033110;28;20054;-70
2023/02/20 11:39:04;;;;;;;17.77;6.07;;;10.20;99.90;;;;;;5033469;28;20041;-69
2023/02/20 11:41:33;;;;;;;12.32;6.32;;;10.00;99.90;;;;;;5033409;28;20033;-69
2023/02/20 11:44:26;;;;;;;16.05;6.57;;;10.20;99.90;;;;;;5033101;28;20132;-69
2023/02/20 11:47:26;;;;;;;14.13;6.18;;;10.20;99.90;;;;;;5032364;28;20123;-70
2023/02/20 11:50:11;;;;;;;11.85;5.57;;;10.10;99.90;;;;;;5032627;28;20095;-69
2023/02/20 11:52:36;;;;;;;18.70;6.75;;;10.10;99.90;;;;;;5032845;28;20037;-69
2023/02/20 11:55:20;;;;;;;14.25;6.43;;;10.10;99.90;;;;;;5032828;28;20038;-69
2023/02/20 11:57:47;;;;;;;13.02;6.07;;;10.20;99.90;;;;;;5032912;28;20037;-69
2023/02/20 12:00:43;;;;;;;10.90;6.07;;;10.30;99.90;;;;;;5033043;28;20041;-69
2023/02/20 12:03:11;;;;;;;14.60;5.60;;;10.20;99.90;;;;;;5031563;28;20075;-69
2023/02/20 12:05:41;;;;;;;12.80;6.13;;;10.20;99.90;;;;;;5032958;28;20047;-69
2023/02/20 12:08:25;;;;;;;13.02;5.97;;;10.30;99.90;;;;;;5033027;28;20397;-69
2023/02/20 12:10:54;;;;;;;13.77;5.50;;;10.20;99.90;;;;;;5032907;28;20168;-69
2023/02/20 12:13:19;;;;;;;11.13;5.68;;;10.30;99.90;;;;;;5032611;28;20092;-69
2023/02/20 12:15:53;;;;;;;16.35;6.63;;;10.30;99.90;;;;;;5032705;28;20107;-69
2023/02/20 12:18:21;;;;;;;;;;;10.30;99.90;;;;;;5034258;28;20037;-69
2023/02/20 12:21:22;;;;;;;14.02;6.05;;;10.20;99.90;;;;;;5041176;28;20388;-69
2023/02/20 12:24:11;;;;;;;13.10;5.43;;;10.30;99.90;;;;;;5034220;28;20045;-71
2023/02/20 12:26:46;;;;;;;12.63;4.97;;;10.30;99.90;;;;;;5032508;28;20408;-70
2023/02/20 12:29:40;;;;;;;23.42;6.72;;;10.40;99.90;;;;;;5032517;28;20042;-69
2023/02/20 12:32:21;;;;;;;16.10;5.53;;;10.40;99.90;;;;;;5032544;28;20053;-70
2023/02/20 12:35:14;;;;;;;17.38;5.70;;;10.30;99.90;;;;;;5032314;28;20455;-70
2023/02/20 12:38:05;;;;;;;15.52;5.45;;;10.30;99.90;;;;;;5032591;28;20101;-71
2023/02/20 12:40:56;;;;;;;17.05;6.32;;;10.50;99.90;;;;;;5032229;28;20044;-70
2023/02/20 12:43:50;;;;;;;16.80;5.65;;;10.50;99.90;;;;;;5031758;28;20107;-70
2023/02/20 12:46:42;;;;;;;13.13;5.70;;;10.40;99.90;;;;;;5030916;28;20049;-70
2023/02/20 12:49:41;;;;;;;17.67;6.35;;;10.40;99.90;;;;;;5032188;28;20045;-70
2023/02/20 12:52:35;;;;;;;18.65;6.30;;;10.40;99.90;;;;;;5032336;28;20116;-70
2023/02/20 12:55:19;;;;;;;15.20;4.88;;;10.50;99.90;;;;;;5034416;28;20100;-70
2023/02/20 12:58:14;;;;;;;10.13;5.20;;;10.40;99.90;;;;;;5041925;28;20487;-70
2023/02/20 13:00:43;;;;;;;21.08;6.75;;;10.40;99.90;;;;;;5040267;28;20044;-70
2023/02/20 13:03:19;;;;;;;15.48;6.18;;;10.60;99.90;;;;;;5048234;28;20097;-70
2023/02/20 13:05:47;;;;;;;19.48;5.78;;;10.50;99.90;;;;;;5032657;28;20048;-71
2023/02/20 13:08:36;;;;;;;9.50;4.70;;;10.60;99.90;;;;;;5034623;28;20029;-70
2023/02/20 13:11:09;;;;;;;17.67;5.25;;;10.50;99.90;;;;;;5050005;28;20048;-70
2023/02/20 13:13:54;;;;;;;13.90;5.25;;;10.60;99.90;;;;;;5051511;28;20051;-69
2023/02/20 13:16:38;;;;;;;14.57;5.88;;;10.50;99.90;;;;;;5051669;28;20040;-74